Parker, Indiana
Current Conditions -  °F | °C
As of 10:53 AM on Friday 24 Oct 2014 (Local Time) from KMIE Reporting Station
Clear Clear  
Wind Chill: 12°   Ceiling: Unl
Heat Index: 12°   Visibility: 10mi
Dew Point:   Wind: 5mph
Humidity: 66%   Direction: 240°WSW
Pressure: 30.1"   Gusts: NA
Location:  40.2107°N, 85.182°W
Report Text: KMIE 241453Z 24004KT 10SM CLR 12/06 A3010 RMK AO2 SLP192 T01220061 51001
Loading
Personal Weather Stations






























Interactive Weather Map
Tropical Storm Tracking
New forecast layout! Learn more

10-Day Weather Forecast

Advertisements
Track Severe Weather on mobile